Time;durP1;ratioP1;P1;durP2;ratioP2;P2;SDS_P1;SDS_P2;PMS_P1;PMS_P2;Temp;Humidity;BMP_temperature;BMP_pressure;BME280_temperature;BME280_humidity;BME280_pressure;Samples;Min_cycle;Max_cycle;Signal;HPM_P1;HPM_P2
2021/04/02 00:02:04;;;;;;;9.38;8.48;;;;;;;;;;5108407;28;20164;-43
2021/04/02 00:04:30;;;;;;;9.17;7.70;;;;;;;;;;5106846;28;20716;-44
2021/04/02 00:06:55;;;;;;;10.40;9.40;;;;;;;;;;5104890;28;21166;-43
2021/04/02 00:09:20;;;;;;;9.88;8.95;;;;;;;;;;5104590;28;20562;-42
2021/04/02 00:11:45;;;;;;;9.63;8.83;;;;;;;;;;5107968;28;20199;-43
2021/04/02 00:14:11;;;;;;;10.25;9.25;;;;;;;;;;5106309;28;20163;-42
2021/04/02 00:16:36;;;;;;;9.57;8.67;;;;;;;;;;5108419;28;20227;-43
2021/04/02 00:19:01;;;;;;;10.67;9.70;;;;;;;;;;5105147;27;20169;-42
2021/04/02 00:21:26;;;;;;;11.10;9.60;;;;;;;;;;5101365;28;20267;-43
2021/04/02 00:23:52;;;;;;;9.97;9.07;;;;;;;;;;5098394;28;20182;-42
2021/04/02 00:26:18;;;;;;;9.00;8.20;;;;;;;;;;5108107;28;20575;-43
2021/04/02 00:28:44;;;;;;;9.07;8.27;;;;;;;;;;5103729;28;20164;-43
2021/04/02 00:31:09;;;;;;;10.17;9.17;;;;;;;;;;5105107;28;21246;-42
2021/04/02 00:33:35;;;;;;;9.00;8.23;;;;;;;;;;5110020;28;20585;-42
2021/04/02 00:36:01;;;;;;;9.90;8.90;;;;;;;;;;5106780;28;20174;-48
2021/04/02 00:38:26;;;;;;;9.13;8.30;;;;;;;;;;5103596;28;20196;-43
2021/04/02 00:40:53;;;;;;;9.33;8.50;;;;;;;;;;5102323;28;20635;-43
2021/04/02 00:43:27;;;;;;;9.07;8.27;;;;;;;;;;5099130;28;20685;-43
2021/04/02 00:45:52;;;;;;;8.90;8.00;;;;;;;;;;5097416;28;20619;-44
2021/04/02 00:48:17;;;;;;;9.37;8.57;;;;;;;;;;5104298;28;20597;-43
2021/04/02 00:51:09;;;;;;;9.67;8.67;;;;;;;;;;5101501;28;20258;-43
2021/04/02 00:53:42;;;;;;;10.30;9.30;;;;;;;;;;5092040;28;20176;-43
2021/04/02 00:56:08;;;;;;;9.50;8.60;;;;;;;;;;5104727;28;20646;-43
2021/04/02 00:58:35;;;;;;;9.43;8.53;;;;;;;;;;5107109;28;20969;-43
2021/04/02 01:01:00;;;;;;;9.83;8.63;;;;;;;;;;5109010;28;20678;-43
2021/04/02 01:03:25;;;;;;;9.00;8.10;;;;;;;;;;5105709;28;21051;-42
2021/04/02 01:05:51;;;;;;;9.63;8.80;;;;;;;;;;5108682;28;20184;-43
2021/04/02 01:08:18;;;;;;;10.43;9.43;;;;;;;;;;5106775;28;20173;-43
2021/04/02 01:10:44;;;;;;;10.23;9.23;;;;;;;;;;5107294;28;20730;-44
2021/04/02 01:13:11;;;;;;;8.70;8.00;;;;;;;;;;5101104;28;20679;-43
2021/04/02 01:15:39;;;;;;;8.73;7.93;;;;;;;;;;5105819;28;20179;-43
2021/04/02 01:18:08;;;;;;;10.20;9.30;;;;;;;;;;5106275;28;20611;-44
2021/04/02 01:20:33;;;;;;;8.23;7.53;;;;;;;;;;5104206;28;20664;-42
2021/04/02 01:23:05;;;;;;;9.47;8.57;;;;;;;;;;5102245;28;20630;-43
2021/04/02 01:25:42;;;;;;;9.03;8.13;;;;;;;;;;5105590;28;20195;-42
2021/04/02 01:28:28;;;;;;;8.97;8.17;;;;;;;;;;5108670;28;20605;-42
2021/04/02 01:30:55;;;;;;;9.33;8.43;;;;;;;;;;5105439;28;20756;-43
2021/04/02 01:33:21;;;;;;;10.23;9.23;;;;;;;;;;5103767;28;20743;-42
2021/04/02 01:35:47;;;;;;;9.60;8.70;;;;;;;;;;5105270;28;20692;-43
2021/04/02 01:38:12;;;;;;;9.23;8.33;;;;;;;;;;5101864;28;20177;-44
2021/04/02 01:40:39;;;;;;;9.40;8.50;;;;;;;;;;5106445;28;20633;-47
2021/04/02 01:43:06;;;;;;;9.20;8.33;;;;;;;;;;5104786;28;20208;-44
2021/04/02 01:45:31;;;;;;;8.80;8.00;;;;;;;;;;5097675;28;20653;-44
2021/04/02 01:47:57;;;;;;;10.87;9.87;;;;;;;;;;5104074;28;20606;-44
2021/04/02 01:50:23;;;;;;;9.50;8.70;;;;;;;;;;5096116;28;20199;-44
2021/04/02 01:52:49;;;;;;;9.37;8.40;;;;;;;;;;5103432;28;21145;-44
2021/04/02 01:55:15;;;;;;;8.90;8.10;;;;;;;;;;5104894;28;20676;-44
2021/04/02 01:57:42;;;;;;;8.70;7.90;;;;;;;;;;5107343;28;20656;-44
2021/04/02 02:00:09;;;;;;;11.90;9.40;;;;;;;;;;5107155;28;20593;-43
2021/04/02 02:02:34;;;;;;;10.13;9.20;;;;;;;;;;5100206;28;20602;-44
2021/04/02 02:05:00;;;;;;;10.23;9.17;;;;;;;;;;5100738;28;20674;-43
2021/04/02 02:07:26;;;;;;;11.67;9.47;;;;;;;;;;5101374;28;20595;-43
2021/04/02 02:09:52;;;;;;;10.00;9.10;;;;;;;;;;5105435;28;20201;-43
2021/04/02 02:12:19;;;;;;;12.87;9.40;;;;;;;;;;5102041;28;20256;-43
2021/04/02 02:14:46;;;;;;;11.50;10.30;;;;;;;;;;5106426;28;20607;-43
2021/04/02 02:17:12;;;;;;;10.80;9.70;;;;;;;;;;5101463;28;20683;-42
2021/04/02 02:19:38;;;;;;;11.13;10.03;;;;;;;;;;5101057;28;20648;-43
2021/04/02 02:22:05;;;;;;;10.97;9.87;;;;;;;;;;5103644;28;20602;-43
2021/04/02 02:24:30;;;;;;;11.07;10.00;;;;;;;;;;5106073;28;21143;-44
2021/04/02 02:26:56;;;;;;;11.70;10.50;;;;;;;;;;5106811;28;20621;-44
2021/04/02 02:29:21;;;;;;;12.50;11.03;;;;;;;;;;5105221;28;20605;-44
2021/04/02 02:31:46;;;;;;;13.57;10.67;;;;;;;;;;5099474;28;20181;-44
2021/04/02 02:34:11;;;;;;;11.87;10.57;;;;;;;;;;5105010;28;20179;-44
2021/04/02 02:36:37;;;;;;;13.47;11.63;;;;;;;;;;5104905;28;20175;-44
2021/04/02 02:39:05;;;;;;;12.80;11.47;;;;;;;;;;5101751;28;20173;-44
2021/04/02 02:41:30;;;;;;;11.50;10.30;;;;;;;;;;5106778;28;20201;-44
2021/04/02 02:43:56;;;;;;;12.10;10.80;;;;;;;;;;5102220;28;20595;-44
2021/04/02 02:46:24;;;;;;;12.83;9.47;;;;;;;;;;5102179;28;20260;-44
2021/04/02 02:48:50;;;;;;;11.80;10.37;;;;;;;;;;5098668;28;20660;-44
2021/04/02 02:51:16;;;;;;;11.17;9.40;;;;;;;;;;5097683;28;20733;-44
2021/04/02 02:53:41;;;;;;;9.57;8.53;;;;;;;;;;5099040;28;20589;-43
2021/04/02 02:56:07;;;;;;;10.77;8.90;;;;;;;;;;5102390;28;20305;-43
2021/04/02 02:58:35;;;;;;;9.90;8.90;;;;;;;;;;5102604;28;20181;-44
2021/04/02 03:01:00;;;;;;;9.73;8.47;;;;;;;;;;5103074;28;20694;-44
2021/04/02 03:03:26;;;;;;;10.83;9.40;;;;;;;;;;5107558;28;21191;-44
2021/04/02 03:05:52;;;;;;;11.10;8.80;;;;;;;;;;5101477;28;20202;-43
2021/04/02 03:08:22;;;;;;;10.07;9.07;;;;;;;;;;5101970;28;20700;-43
2021/04/02 03:10:47;;;;;;;13.30;10.90;;;;;;;;;;5100773;28;20641;-43
2021/04/02 03:13:16;;;;;;;13.20;10.30;;;;;;;;;;5104503;28;20599;-43
2021/04/02 03:15:41;;;;;;;13.23;10.77;;;;;;;;;;5093952;28;20188;-43
2021/04/02 03:18:07;;;;;;;12.27;11.00;;;;;;;;;;5106102;28;21175;-43
2021/04/02 03:20:33;;;;;;;17.07;14.40;;;;;;;;;;5102406;28;20267;-43
2021/04/02 03:22:58;;;;;;;15.60;13.57;;;;;;;;;;5108671;28;20182;-43
2021/04/02 03:25:25;;;;;;;15.77;13.57;;;;;;;;;;5111046;28;20606;-43
2021/04/02 03:27:51;;;;;;;17.97;14.60;;;;;;;;;;5102248;28;20552;-43
2021/04/02 03:30:17;;;;;;;18.07;15.07;;;;;;;;;;5107444;28;20658;-43
2021/04/02 03:32:44;;;;;;;15.97;14.30;;;;;;;;;;5105498;28;20301;-43
2021/04/02 03:35:11;;;;;;;16.57;14.33;;;;;;;;;;5108457;28;20692;-43
2021/04/02 03:37:37;;;;;;;17.37;14.40;;;;;;;;;;5086544;28;20621;-44
2021/04/02 03:40:05;;;;;;;16.10;13.40;;;;;;;;;;5105946;28;20636;-44
2021/04/02 03:42:32;;;;;;;15.23;13.60;;;;;;;;;;5100430;28;20684;-43
2021/04/02 03:44:59;;;;;;;14.77;13.13;;;;;;;;;;5107916;28;20609;-44
2021/04/02 03:47:25;;;;;;;15.30;13.70;;;;;;;;;;5104014;28;20595;-43
2021/04/02 03:49:51;;;;;;;15.37;13.77;;;;;;;;;;5101615;28;20642;-42
2021/04/02 03:52:20;;;;;;;13.90;12.37;;;;;;;;;;5103497;28;20598;-43
2021/04/02 03:54:47;;;;;;;12.03;10.83;;;;;;;;;;5104073;28;21344;-43
2021/04/02 03:57:13;;;;;;;13.30;11.17;;;;;;;;;;5109832;28;20780;-43
2021/04/02 03:59:39;;;;;;;11.63;10.50;;;;;;;;;;5099265;28;20674;-42
2021/04/02 04:02:05;;;;;;;9.83;8.90;;;;;;;;;;5104510;28;20216;-42
2021/04/02 04:04:31;;;;;;;10.73;9.63;;;;;;;;;;5104395;28;20594;-42
2021/04/02 04:06:58;;;;;;;9.00;8.20;;;;;;;;;;5102970;27;20942;-42
2021/04/02 04:09:23;;;;;;;8.73;7.93;;;;;;;;;;5103069;28;20633;-42
2021/04/02 04:11:49;;;;;;;8.60;7.80;;;;;;;;;;5096136;28;20590;-42
2021/04/02 04:14:14;;;;;;;8.60;7.77;;;;;;;;;;5108300;28;20335;-42
2021/04/02 04:16:40;;;;;;;8.63;7.83;;;;;;;;;;5104154;28;20184;-42
2021/04/02 04:19:06;;;;;;;8.10;7.30;;;;;;;;;;5105620;28;20180;-42
2021/04/02 04:21:35;;;;;;;7.60;6.90;;;;;;;;;;5100705;28;20180;-43
2021/04/02 04:24:00;;;;;;;8.60;7.80;;;;;;;;;;5108225;28;20203;-43
2021/04/02 04:26:27;;;;;;;7.97;7.17;;;;;;;;;;5104900;28;20595;-43
2021/04/02 04:28:53;;;;;;;8.23;7.43;;;;;;;;;;5105029;28;20976;-43
2021/04/02 04:31:19;;;;;;;7.37;6.67;;;;;;;;;;5107788;28;20648;-44
2021/04/02 04:33:46;;;;;;;7.57;6.80;;;;;;;;;;5071909;28;20169;-42
2021/04/02 04:36:12;;;;;;;8.07;6.90;;;;;;;;;;5108736;28;20976;-43
2021/04/02 04:38:38;;;;;;;7.90;7.10;;;;;;;;;;5098040;28;20597;-43
2021/04/02 04:41:04;;;;;;;7.90;7.20;;;;;;;;;;5107399;28;20256;-43
2021/04/02 04:43:30;;;;;;;8.43;7.63;;;;;;;;;;5109218;28;20602;-43
2021/04/02 04:45:55;;;;;;;8.07;7.37;;;;;;;;;;5103148;27;20614;-44
2021/04/02 04:48:21;;;;;;;9.23;7.20;;;;;;;;;;5106381;28;20597;-44
2021/04/02 04:50:46;;;;;;;9.47;8.50;;;;;;;;;;5095626;28;20198;-43
2021/04/02 04:53:14;;;;;;;7.97;7.17;;;;;;;;;;5102663;28;20723;-44
2021/04/02 04:55:40;;;;;;;8.57;7.73;;;;;;;;;;5106138;28;20230;-42
2021/04/02 04:58:08;;;;;;;9.53;8.07;;;;;;;;;;5101338;28;20615;-42
2021/04/02 05:00:33;;;;;;;8.97;8.07;;;;;;;;;;5105033;28;20674;-43
2021/04/02 05:02:59;;;;;;;9.30;8.10;;;;;;;;;;5109472;28;21144;-44
2021/04/02 05:05:36;;;;;;;11.10;8.90;;;;;;;;;;5106707;28;20188;-43
2021/04/02 05:08:02;;;;;;;9.33;8.53;;;;;;;;;;5108663;28;20693;-42
2021/04/02 05:10:27;;;;;;;10.87;9.47;;;;;;;;;;5106904;28;21218;-43
2021/04/02 05:12:53;;;;;;;13.40;9.77;;;;;;;;;;5107606;28;20590;-43
2021/04/02 05:15:20;;;;;;;13.17;9.53;;;;;;;;;;5107639;28;20627;-43
2021/04/02 05:17:46;;;;;;;10.27;9.23;;;;;;;;;;5103530;28;20642;-44
2021/04/02 05:20:12;;;;;;;11.20;9.70;;;;;;;;;;5105511;28;20598;-42
2021/04/02 05:22:37;;;;;;;11.10;9.60;;;;;;;;;;5107291;28;20594;-43
2021/04/02 05:25:03;;;;;;;11.57;9.73;;;;;;;;;;5100231;28;20262;-43
2021/04/02 05:27:28;;;;;;;8.93;8.03;;;;;;;;;;5102122;27;20206;-43
2021/04/02 05:29:54;;;;;;;14.70;8.82;;;;;;;;;;5103046;28;20670;-44
2021/04/02 05:32:19;;;;;;;11.52;8.30;;;;;;;;;;5102435;28;20176;-43
2021/04/02 05:34:44;;;;;;;9.70;8.43;;;;;;;;;;5101827;28;20183;-44
2021/04/02 05:37:09;;;;;;;10.83;8.50;;;;;;;;;;5104022;28;20234;-43
2021/04/02 05:39:34;;;;;;;12.10;8.13;;;;;;;;;;5097842;28;20170;-43
2021/04/02 05:42:02;;;;;;;10.83;7.93;;;;;;;;;;5108417;28;20719;-48
2021/04/02 05:44:29;;;;;;;9.20;6.93;;;;;;;;;;5109071;28;20651;-44
2021/04/02 05:46:58;;;;;;;11.93;7.93;;;;;;;;;;5104592;28;20644;-43
2021/04/02 05:49:24;;;;;;;9.43;6.80;;;;;;;;;;5105026;28;20600;-43
2021/04/02 05:51:49;;;;;;;8.13;6.63;;;;;;;;;;5106473;27;20623;-43
2021/04/02 05:54:16;;;;;;;11.20;7.07;;;;;;;;;;5108302;28;20173;-43
2021/04/02 05:56:41;;;;;;;10.90;6.67;;;;;;;;;;5105984;28;20229;-43
2021/04/02 05:59:06;;;;;;;6.95;5.95;;;;;;;;;;5107338;28;20599;-43
2021/04/02 06:01:31;;;;;;;7.07;6.37;;;;;;;;;;5104082;28;20259;-43
2021/04/02 06:03:57;;;;;;;8.37;6.20;;;;;;;;;;5103826;28;20180;-44
2021/04/02 06:06:22;;;;;;;6.50;5.57;;;;;;;;;;5107818;27;20209;-42
2021/04/02 06:08:47;;;;;;;8.10;5.70;;;;;;;;;;5105638;28;20198;-46
2021/04/02 06:11:13;;;;;;;6.40;5.43;;;;;;;;;;5107946;28;20296;-43
2021/04/02 06:13:38;;;;;;;7.70;6.10;;;;;;;;;;5106677;28;20177;-43
2021/04/02 06:16:04;;;;;;;6.27;5.67;;;;;;;;;;5101071;28;20587;-46
2021/04/02 06:18:29;;;;;;;10.00;5.90;;;;;;;;;;5092425;28;20176;-42
2021/04/02 06:20:55;;;;;;;6.37;5.50;;;;;;;;;;5107327;28;20184;-43
2021/04/02 06:23:22;;;;;;;7.43;5.53;;;;;;;;;;5100049;28;20233;-43
2021/04/02 06:25:50;;;;;;;7.77;6.00;;;;;;;;;;5098473;28;20638;-43
2021/04/02 06:28:32;;;;;;;9.30;5.70;;;;;;;;;;5106664;28;20610;-43
2021/04/02 06:31:03;;;;;;;7.57;6.20;;;;;;;;;;5102433;28;20650;-43
2021/04/02 06:33:38;;;;;;;11.97;6.97;;;;;;;;;;5103118;28;21191;-43
2021/04/02 06:36:13;;;;;;;9.33;5.63;;;;;;;;;;5077746;28;21346;-43
2021/04/02 06:38:40;;;;;;;8.93;6.30;;;;;;;;;;5100150;28;20594;-42
2021/04/02 06:41:06;;;;;;;8.63;6.63;;;;;;;;;;5102233;28;20624;-44
2021/04/02 06:43:35;;;;;;;9.00;6.27;;;;;;;;;;5107797;28;21038;-43
2021/04/02 06:46:04;;;;;;;7.87;6.27;;;;;;;;;;5104292;28;20309;-42
2021/04/02 06:48:29;;;;;;;7.67;6.90;;;;;;;;;;5102155;28;20614;-43
2021/04/02 06:50:55;;;;;;;11.13;9.70;;;;;;;;;;5095297;28;20646;-43
2021/04/02 06:53:20;;;;;;;10.77;9.03;;;;;;;;;;5103055;28;20626;-43
2021/04/02 06:55:46;;;;;;;9.60;8.13;;;;;;;;;;5106524;28;20326;-44
2021/04/02 06:58:12;;;;;;;9.57;8.20;;;;;;;;;;5106904;28;20702;-43
2021/04/02 07:00:39;;;;;;;10.03;8.60;;;;;;;;;;5105798;28;20649;-43
2021/04/02 07:03:05;;;;;;;13.07;9.90;;;;;;;;;;5089751;28;20210;-43
2021/04/02 07:05:31;;;;;;;10.63;8.50;;;;;;;;;;5100495;28;20618;-44
2021/04/02 07:08:00;;;;;;;11.10;9.23;;;;;;;;;;5099579;28;21223;-44
2021/04/02 07:10:26;;;;;;;12.07;9.57;;;;;;;;;;5101408;28;20201;-42
2021/04/02 07:12:51;;;;;;;11.87;8.90;;;;;;;;;;5106203;28;20643;-43
2021/04/02 07:15:17;;;;;;;8.73;7.93;;;;;;;;;;5101695;28;20623;-43
2021/04/02 07:17:44;;;;;;;9.60;8.60;;;;;;;;;;5105176;28;20599;-44
2021/04/02 07:20:09;;;;;;;9.70;8.70;;;;;;;;;;5100617;28;20606;-44
2021/04/02 07:22:34;;;;;;;8.03;7.23;;;;;;;;;;5097911;28;21226;-43
2021/04/02 07:25:00;;;;;;;9.20;8.30;;;;;;;;;;5097330;28;20406;-43
2021/04/02 07:27:28;;;;;;;8.80;7.90;;;;;;;;;;5101312;28;20186;-44
2021/04/02 07:29:54;;;;;;;8.60;7.77;;;;;;;;;;5101197;28;20202;-43
2021/04/02 07:32:20;;;;;;;9.17;8.27;;;;;;;;;;5094882;28;21230;-43
2021/04/02 07:34:45;;;;;;;8.93;8.07;;;;;;;;;;5103533;28;20599;-42
2021/04/02 07:37:12;;;;;;;9.57;7.57;;;;;;;;;;5107122;28;20542;-43
2021/04/02 07:39:38;;;;;;;7.97;7.17;;;;;;;;;;5102084;28;20826;-42
2021/04/02 07:42:04;;;;;;;10.33;8.27;;;;;;;;;;5098831;28;20653;-42
2021/04/02 07:44:55;;;;;;;8.20;7.40;;;;;;;;;;5106919;28;20696;-41
2021/04/02 07:47:22;;;;;;;9.93;7.60;;;;;;;;;;5102211;28;20193;-42
2021/04/02 07:49:47;;;;;;;10.40;8.37;;;;;;;;;;5106441;28;20639;-42
2021/04/02 07:52:12;;;;;;;9.48;8.20;;;;;;;;;;5107347;28;20615;-42
2021/04/02 07:54:41;;;;;;;9.10;8.30;;;;;;;;;;5098522;28;20189;-43
2021/04/02 07:57:09;;;;;;;9.67;8.67;;;;;;;;;;5096007;28;20222;-43
2021/04/02 07:59:42;;;;;;;10.03;8.17;;;;;;;;;;5105446;28;20956;-43
2021/04/02 08:02:11;;;;;;;9.90;7.97;;;;;;;;;;5103770;28;20643;-43
2021/04/02 08:04:48;;;;;;;12.37;8.30;;;;;;;;;;5107954;28;20671;-42
2021/04/02 08:07:17;;;;;;;11.90;8.73;;;;;;;;;;5109289;28;20587;-43
2021/04/02 08:09:49;;;;;;;11.03;8.90;;;;;;;;;;5113608;27;20617;-43
2021/04/02 08:12:20;;;;;;;9.33;8.30;;;;;;;;;;5105021;27;20643;-43
2021/04/02 08:14:49;;;;;;;9.07;8.10;;;;;;;;;;5103126;28;21136;-43
2021/04/02 08:17:19;;;;;;;8.60;7.70;;;;;;;;;;5109942;28;21070;-43
2021/04/02 08:19:44;;;;;;;8.90;8.00;;;;;;;;;;5100156;28;20592;-43
2021/04/02 08:22:14;;;;;;;8.80;7.90;;;;;;;;;;5098463;28;20586;-43
2021/04/02 08:24:43;;;;;;;12.00;8.80;;;;;;;;;;5098985;28;20178;-43
2021/04/02 08:27:09;;;;;;;10.70;9.47;;;;;;;;;;5107295;28;20599;-44
2021/04/02 08:29:35;;;;;;;9.33;8.43;;;;;;;;;;5102080;28;20679;-45
2021/04/02 08:32:02;;;;;;;9.20;8.30;;;;;;;;;;5097487;28;20619;-44
2021/04/02 08:34:28;;;;;;;15.43;11.30;;;;;;;;;;5095651;28;20171;-43
2021/04/02 08:36:58;;;;;;;9.77;8.40;;;;;;;;;;5104561;28;20624;-43
2021/04/02 08:39:24;;;;;;;8.80;7.90;;;;;;;;;;5099706;28;21235;-43
2021/04/02 08:42:01;;;;;;;9.67;8.17;;;;;;;;;;5101975;28;20622;-44
2021/04/02 08:44:28;;;;;;;8.93;8.03;;;;;;;;;;5105246;28;20593;-43
2021/04/02 08:46:56;;;;;;;11.37;10.27;;;;;;;;;;5104266;28;20605;-43
2021/04/02 08:49:21;;;;;;;14.47;11.43;;;;;;;;;;5106871;28;20696;-42
2021/04/02 08:51:47;;;;;;;15.90;14.20;;;;;;;;;;5104882;28;20696;-44
2021/04/02 08:54:20;;;;;;;15.10;12.90;;;;;;;;;;5105030;28;20190;-42
2021/04/02 08:56:45;;;;;;;19.10;14.53;;;;;;;;;;5105397;28;20633;-43
2021/04/02 08:59:10;;;;;;;12.33;10.53;;;;;;;;;;5100304;28;20594;-43
2021/04/02 09:01:42;;;;;;;13.53;11.63;;;;;;;;;;5106846;28;20262;-43
2021/04/02 09:04:08;;;;;;;12.03;10.63;;;;;;;;;;5105622;28;20181;-43
2021/04/02 09:06:34;;;;;;;12.10;10.80;;;;;;;;;;5109060;28;20660;-44
2021/04/02 09:09:00;;;;;;;11.90;10.67;;;;;;;;;;5109366;28;20249;-42
2021/04/02 09:11:26;;;;;;;13.07;10.03;;;;;;;;;;5109634;28;20265;-43
2021/04/02 09:13:51;;;;;;;12.50;11.20;;;;;;;;;;5103893;28;20655;-43
2021/04/02 09:16:17;;;;;;;11.27;10.10;;;;;;;;;;5105858;27;20600;-43
2021/04/02 09:18:56;;;;;;;13.30;11.90;;;;;;;;;;5107641;27;20186;-44
2021/04/02 09:21:22;;;;;;;13.70;12.30;;;;;;;;;;5108359;27;20612;-43
2021/04/02 09:23:51;;;;;;;15.63;12.13;;;;;;;;;;5107386;27;20709;-43
2021/04/02 09:26:17;;;;;;;15.20;13.23;;;;;;;;;;5109101;27;20643;-44
2021/04/02 09:28:42;;;;;;;14.27;12.27;;;;;;;;;;5104656;28;20626;-43
2021/04/02 09:31:16;;;;;;;15.50;12.20;;;;;;;;;;5107923;28;20343;-43
2021/04/02 09:33:42;;;;;;;14.83;12.43;;;;;;;;;;5107065;28;20201;-43
2021/04/02 09:36:11;;;;;;;11.90;10.53;;;;;;;;;;5107906;28;20621;-43
2021/04/02 09:38:36;;;;;;;14.40;12.03;;;;;;;;;;5107354;28;20651;-43
2021/04/02 09:41:02;;;;;;;13.40;10.97;;;;;;;;;;5104339;28;20635;-43
2021/04/02 09:43:38;;;;;;;13.23;11.83;;;;;;;;;;5107026;28;20226;-44
2021/04/02 09:46:03;;;;;;;14.43;12.13;;;;;;;;;;5097468;28;20565;-43
2021/04/02 09:48:35;;;;;;;11.87;10.03;;;;;;;;;;5098630;28;20627;-43
2021/04/02 09:51:00;;;;;;;11.40;10.07;;;;;;;;;;5104373;28;20254;-48
2021/04/02 09:53:25;;;;;;;11.83;10.63;;;;;;;;;;5100660;28;21164;-44
2021/04/02 09:55:51;;;;;;;15.10;11.10;;;;;;;;;;5102401;28;20301;-44
2021/04/02 09:58:16;;;;;;;9.55;8.65;;;;;;;;;;5096460;28;20474;-44
2021/04/02 10:00:41;;;;;;;8.40;6.77;;;;;;;;;;5104539;28;20180;-42
2021/04/02 10:03:13;;;;;;;8.27;7.57;;;;;;;;;;5101963;28;20586;-43
2021/04/02 10:05:38;;;;;;;9.00;8.10;;;;;;;;;;5096690;28;20185;-43
2021/04/02 10:08:03;;;;;;;9.67;8.67;;;;;;;;;;5103496;28;20610;-43
2021/04/02 10:10:29;;;;;;;10.30;8.27;;;;;;;;;;5103859;28;20690;-43
2021/04/02 10:12:54;;;;;;;8.95;8.02;;;;;;;;;;5105929;28;20894;-43
2021/04/02 10:15:19;;;;;;;10.00;7.80;;;;;;;;;;5103202;28;20171;-43
2021/04/02 10:17:45;;;;;;;9.43;8.63;;;;;;;;;;5102946;28;20201;-42
2021/04/02 10:20:10;;;;;;;12.77;10.73;;;;;;;;;;5104706;28;20162;-46
2021/04/02 10:22:35;;;;;;;10.50;9.50;;;;;;;;;;5105695;28;20187;-43
2021/04/02 10:25:01;;;;;;;9.20;7.90;;;;;;;;;;5100879;28;20614;-43
2021/04/02 10:27:26;;;;;;;10.10;9.07;;;;;;;;;;5104296;28;20181;-42
2021/04/02 10:29:51;;;;;;;10.70;9.70;;;;;;;;;;5105417;28;20251;-43
2021/04/02 10:32:16;;;;;;;10.13;9.10;;;;;;;;;;5097567;28;20209;-42
2021/04/02 10:34:41;;;;;;;12.02;10.93;;;;;;;;;;5099544;28;21112;-43
2021/04/02 10:37:07;;;;;;;9.07;8.17;;;;;;;;;;5103473;28;20205;-43
2021/04/02 10:39:33;;;;;;;8.70;7.90;;;;;;;;;;5100012;28;20174;-43
2021/04/02 10:41:58;;;;;;;8.67;7.03;;;;;;;;;;5103068;28;20327;-43
2021/04/02 10:44:24;;;;;;;7.47;6.70;;;;;;;;;;5104809;28;20698;-43
2021/04/02 10:46:49;;;;;;;6.50;5.90;;;;;;;;;;5095282;28;20167;-43
2021/04/02 10:49:14;;;;;;;6.57;5.97;;;;;;;;;;5103252;28;20180;-43
2021/04/02 10:51:39;;;;;;;7.20;6.60;;;;;;;;;;5103832;28;20663;-43
2021/04/02 10:54:04;;;;;;;7.27;6.67;;;;;;;;;;5103363;28;20180;-43
2021/04/02 10:56:30;;;;;;;7.80;7.10;;;;;;;;;;5102007;28;20214;-43
2021/04/02 10:58:56;;;;;;;6.87;6.33;;;;;;;;;;5103738;28;20570;-43
2021/04/02 11:01:21;;;;;;;7.20;6.50;;;;;;;;;;5105868;28;20180;-44
2021/04/02 11:03:46;;;;;;;6.13;5.63;;;;;;;;;;5104719;28;20174;-44
2021/04/02 11:06:11;;;;;;;7.47;6.03;;;;;;;;;;5100863;28;20189;-44
2021/04/02 11:08:37;;;;;;;8.60;7.20;;;;;;;;;;5103753;28;20313;-43
2021/04/02 11:11:02;;;;;;;6.67;6.07;;;;;;;;;;5100226;28;20241;-44
2021/04/02 11:13:27;;;;;;;6.10;5.60;;;;;;;;;;5103413;28;20227;-44
2021/04/02 11:15:52;;;;;;;6.40;5.90;;;;;;;;;;5103038;28;20204;-43
2021/04/02 11:18:17;;;;;;;5.68;5.28;;;;;;;;;;5095501;28;20231;-43
2021/04/02 11:20:43;;;;;;;6.37;5.87;;;;;;;;;;5096127;28;20199;-43
2021/04/02 11:23:08;;;;;;;6.53;5.93;;;;;;;;;;5106572;28;20177;-42
2021/04/02 11:25:33;;;;;;;9.60;5.37;;;;;;;;;;5102133;28;20270;-43
2021/04/02 11:27:58;;;;;;;6.20;5.75;;;;;;;;;;5098494;28;20534;-43
2021/04/02 11:30:24;;;;;;;5.93;5.40;;;;;;;;;;5101240;28;20193;-43
2021/04/02 11:32:49;;;;;;;5.67;5.17;;;;;;;;;;5102083;28;20181;-43
2021/04/02 11:35:15;;;;;;;5.20;4.80;;;;;;;;;;5099699;28;20261;-43
2021/04/02 11:37:41;;;;;;;5.90;5.23;;;;;;;;;;5100193;28;20175;-43
2021/04/02 11:40:08;;;;;;;5.73;5.23;;;;;;;;;;5103607;27;20625;-46
2021/04/02 11:42:33;;;;;;;5.13;4.77;;;;;;;;;;5098631;27;20630;-43
2021/04/02 11:44:58;;;;;;;5.87;5.37;;;;;;;;;;5111160;27;20622;-43
2021/04/02 11:47:23;;;;;;;6.70;6.20;;;;;;;;;;5110934;27;20189;-42
2021/04/02 11:49:48;;;;;;;5.73;5.33;;;;;;;;;;5106588;28;20246;-43
2021/04/02 11:52:13;;;;;;;6.32;5.82;;;;;;;;;;5108778;28;20198;-42
2021/04/02 11:54:39;;;;;;;6.53;5.83;;;;;;;;;;5106464;28;20177;-43
2021/04/02 11:57:04;;;;;;;6.13;5.63;;;;;;;;;;5110300;28;20216;-42
2021/04/02 11:59:29;;;;;;;7.63;6.97;;;;;;;;;;5109972;28;20270;-43
2021/04/02 12:01:55;;;;;;;6.90;6.25;;;;;;;;;;5110418;28;20587;-42
2021/04/02 12:04:20;;;;;;;8.07;7.27;;;;;;;;;;5110585;28;20181;-43
2021/04/02 12:06:45;;;;;;;9.27;8.37;;;;;;;;;;5109568;28;20204;-44
2021/04/02 12:09:11;;;;;;;10.03;9.13;;;;;;;;;;5108912;28;20594;-43
2021/04/02 12:11:36;;;;;;;11.13;10.03;;;;;;;;;;5109274;28;20288;-44
2021/04/02 12:14:01;;;;;;;11.67;9.87;;;;;;;;;;5104856;28;20179;-43
2021/04/02 12:16:26;;;;;;;10.17;8.83;;;;;;;;;;5104893;28;20181;-43
2021/04/02 12:18:52;;;;;;;12.47;10.27;;;;;;;;;;5104517;28;20227;-44
2021/04/02 12:21:17;;;;;;;8.90;8.00;;;;;;;;;;5104290;28;20761;-44
2021/04/02 12:23:42;;;;;;;8.83;7.73;;;;;;;;;;5095289;28;20232;-44
2021/04/02 12:26:08;;;;;;;8.83;7.80;;;;;;;;;;5104060;28;20764;-43
2021/04/02 12:28:33;;;;;;;7.53;6.83;;;;;;;;;;5107238;28;20178;-43
2021/04/02 12:31:01;;;;;;;7.90;6.90;;;;;;;;;;5106965;28;20204;-43
2021/04/02 12:33:26;;;;;;;7.17;6.43;;;;;;;;;;5104227;27;20180;-42
2021/04/02 12:35:51;;;;;;;5.77;5.30;;;;;;;;;;5106794;28;20663;-42
2021/04/02 12:38:16;;;;;;;6.67;6.10;;;;;;;;;;5106956;28;20180;-42
2021/04/02 12:40:41;;;;;;;6.78;6.00;;;;;;;;;;5107198;28;20686;-43
2021/04/02 12:43:07;;;;;;;5.83;5.33;;;;;;;;;;5106060;28;20178;-42
2021/04/02 12:45:33;;;;;;;5.70;5.30;;;;;;;;;;5104600;28;20558;-42
2021/04/02 12:47:58;;;;;;;6.80;6.13;;;;;;;;;;5100771;28;20893;-42
2021/04/02 12:50:25;;;;;;;5.80;5.30;;;;;;;;;;5106825;28;20709;-42
2021/04/02 12:52:50;;;;;;;5.60;5.20;;;;;;;;;;5106402;28;20168;-42
2021/04/02 12:55:18;;;;;;;5.43;5.03;;;;;;;;;;5106077;27;20652;-41
2021/04/02 12:57:43;;;;;;;6.10;5.60;;;;;;;;;;5106933;28;20329;-42
2021/04/02 13:00:10;;;;;;;5.30;4.90;;;;;;;;;;5106735;27;20692;-44
2021/04/02 13:02:36;;;;;;;6.67;6.17;;;;;;;;;;5104627;28;20293;-43
2021/04/02 13:05:01;;;;;;;6.47;5.93;;;;;;;;;;5105807;28;21069;-43
2021/04/02 13:07:26;;;;;;;6.43;5.60;;;;;;;;;;5106458;28;20234;-42
2021/04/02 13:09:51;;;;;;;5.53;5.13;;;;;;;;;;5098897;28;20204;-43
2021/04/02 13:12:16;;;;;;;6.25;5.75;;;;;;;;;;5106175;28;20180;-43
2021/04/02 13:14:42;;;;;;;5.73;5.33;;;;;;;;;;5106217;28;20176;-43
2021/04/02 13:17:07;;;;;;;5.90;5.50;;;;;;;;;;5106465;28;20256;-43
2021/04/02 13:19:36;;;;;;;6.77;6.17;;;;;;;;;;5106757;28;20234;-44
2021/04/02 13:22:02;;;;;;;5.30;4.90;;;;;;;;;;5097721;28;20328;-43
2021/04/02 13:24:27;;;;;;;6.00;5.40;;;;;;;;;;5102466;28;20595;-43
2021/04/02 13:26:53;;;;;;;6.60;6.10;;;;;;;;;;5094124;28;20602;-43
2021/04/02 13:29:18;;;;;;;6.43;5.83;;;;;;;;;;5102327;27;20184;-44
2021/04/02 13:31:43;;;;;;;5.90;5.40;;;;;;;;;;5103421;28;20279;-43
2021/04/02 13:34:08;;;;;;;6.50;6.00;;;;;;;;;;5100241;28;20218;-44
2021/04/02 13:36:33;;;;;;;6.27;5.77;;;;;;;;;;5095514;28;20214;-44
2021/04/02 13:38:59;;;;;;;5.70;5.20;;;;;;;;;;5104784;28;20173;-44
2021/04/02 13:41:24;;;;;;;5.90;5.50;;;;;;;;;;5103413;27;20190;-44
2021/04/02 13:43:49;;;;;;;5.70;5.28;;;;;;;;;;5107969;28;20170;-43
2021/04/02 13:46:14;;;;;;;6.82;6.15;;;;;;;;;;5108443;27;20640;-44
2021/04/02 13:48:40;;;;;;;5.80;5.40;;;;;;;;;;5108671;27;20204;-43
2021/04/02 13:51:05;;;;;;;6.10;5.70;;;;;;;;;;5108534;27;20315;-44
2021/04/02 13:53:31;;;;;;;7.17;6.60;;;;;;;;;;5107915;28;20188;-42
2021/04/02 13:55:56;;;;;;;6.33;5.93;;;;;;;;;;5107982;27;20278;-42
2021/04/02 13:58:21;;;;;;;6.50;6.00;;;;;;;;;;5108239;28;20654;-42
2021/04/02 14:00:47;;;;;;;6.20;5.80;;;;;;;;;;5108494;28;20200;-44
2021/04/02 14:03:12;;;;;;;5.50;5.10;;;;;;;;;;5108419;28;20180;-44
2021/04/02 14:05:38;;;;;;;7.23;5.43;;;;;;;;;;5108406;28;20169;-44
2021/04/02 14:08:03;;;;;;;6.10;5.60;;;;;;;;;;5090264;28;20170;-45
2021/04/02 14:10:31;;;;;;;5.63;5.20;;;;;;;;;;5108674;28;20604;-43
2021/04/02 14:12:56;;;;;;;5.93;5.20;;;;;;;;;;5108365;28;20160;-42
2021/04/02 14:15:23;;;;;;;5.40;5.00;;;;;;;;;;5108766;28;21335;-44
2021/04/02 14:17:48;;;;;;;5.43;5.03;;;;;;;;;;5107727;28;20222;-43
2021/04/02 14:20:17;;;;;;;5.40;5.00;;;;;;;;;;5108164;28;20700;-42
2021/04/02 14:22:42;;;;;;;5.70;5.30;;;;;;;;;;5108132;28;20224;-43
2021/04/02 14:25:08;;;;;;;5.10;4.70;;;;;;;;;;5107936;28;21005;-43
2021/04/02 14:27:33;;;;;;;5.13;4.83;;;;;;;;;;5107946;28;20232;-43
2021/04/02 14:29:58;;;;;;;4.93;4.53;;;;;;;;;;5107797;28;21178;-43
2021/04/02 14:32:24;;;;;;;5.80;5.40;;;;;;;;;;5108174;28;20176;-43